sensor_id;sensor_type;location;lat;lon;timestamp;pressure;altitude;pressure_sealevel;temperature;humidity
19210;BME280;9738;51.654;14.238;2022-08-03T00:01:58;100634.84;;;17.64;79.29
19210;BME280;9738;51.654;14.238;2022-08-03T00:04:24;100640.00;;;17.59;78.92
19210;BME280;9738;51.654;14.238;2022-08-03T00:06:50;100635.81;;;17.56;79.50
19210;BME280;9738;51.654;14.238;2022-08-03T00:09:16;100633.69;;;17.51;79.63
19210;BME280;9738;51.654;14.238;2022-08-03T00:11:42;100628.84;;;17.47;79.97
19210;BME280;9738;51.654;14.238;2022-08-03T00:14:08;100635.66;;;17.43;79.94
19210;BME280;9738;51.654;14.238;2022-08-03T00:16:34;100628.97;;;17.39;79.72
19210;BME280;9738;51.654;14.238;2022-08-03T00:19:01;100626.66;;;17.36;80.07
19210;BME280;9738;51.654;14.238;2022-08-03T00:21:27;100624.34;;;17.33;80.20
19210;BME280;9738;51.654;14.238;2022-08-03T00:23:53;100629.28;;;17.29;80.77
19210;BME280;9738;51.654;14.238;2022-08-03T00:26:20;100621.56;;;17.26;80.70
19210;BME280;9738;51.654;14.238;2022-08-03T00:28:45;100622.78;;;17.23;80.70
19210;BME280;9738;51.654;14.238;2022-08-03T00:31:11;100620.19;;;17.15;80.70
19210;BME280;9738;51.654;14.238;2022-08-03T00:33:38;100620.31;;;17.07;80.75
19210;BME280;9738;51.654;14.238;2022-08-03T00:36:03;100617.72;;;16.99;81.69
19210;BME280;9738;51.654;14.238;2022-08-03T00:38:29;100622.03;;;16.93;82.27
19210;BME280;9738;51.654;14.238;2022-08-03T00:40:55;100619.25;;;16.87;82.78
19210;BME280;9738;51.654;14.238;2022-08-03T00:43:24;100618.97;;;16.82;83.08
19210;BME280;9738;51.654;14.238;2022-08-03T00:45:51;100622.00;;;16.79;84.14
19210;BME280;9738;51.654;14.238;2022-08-03T00:48:18;100618.88;;;16.75;84.78
19210;BME280;9738;51.654;14.238;2022-08-03T00:50:43;100622.75;;;16.72;85.49
19210;BME280;9738;51.654;14.238;2022-08-03T00:53:10;100624.97;;;16.69;85.92
19210;BME280;9738;51.654;14.238;2022-08-03T00:55:40;100622.63;;;16.66;86.16
19210;BME280;9738;51.654;14.238;2022-08-03T00:58:07;100623.22;;;16.61;86.76
19210;BME280;9738;51.654;14.238;2022-08-03T01:00:35;100622.53;;;16.59;87.02
19210;BME280;9738;51.654;14.238;2022-08-03T01:03:08;100614.84;;;16.56;86.54
19210;BME280;9738;51.654;14.238;2022-08-03T01:05:41;100612.34;;;16.55;87.09
19210;BME280;9738;51.654;14.238;2022-08-03T01:08:40;100611.88;;;16.51;86.96
19210;BME280;9738;51.654;14.238;2022-08-03T01:11:16;100612.06;;;16.49;87.33
19210;BME280;9738;51.654;14.238;2022-08-03T01:14:04;100617.34;;;16.43;87.57
19210;BME280;9738;51.654;14.238;2022-08-03T01:19:40;100613.63;;;16.29;88.35
19210;BME280;9738;51.654;14.238;2022-08-03T01:25:05;100612.50;;;16.24;89.11
19210;BME280;9738;51.654;14.238;2022-08-03T01:27:43;100614.53;;;16.21;88.80
19210;BME280;9738;51.654;14.238;2022-08-03T01:30:12;100614.72;;;16.20;89.08
19210;BME280;9738;51.654;14.238;2022-08-03T01:32:51;100613.22;;;16.17;88.74
19210;BME280;9738;51.654;14.238;2022-08-03T01:35:30;100610.06;;;16.14;88.66
19210;BME280;9738;51.654;14.238;2022-08-03T01:38:00;100607.91;;;16.09;88.79
19210;BME280;9738;51.654;14.238;2022-08-03T01:40:28;100617.84;;;16.09;89.33
19210;BME280;9738;51.654;14.238;2022-08-03T01:42:58;100612.00;;;16.05;90.52
19210;BME280;9738;51.654;14.238;2022-08-03T01:45:25;100608.47;;;16.05;90.76
19210;BME280;9738;51.654;14.238;2022-08-03T01:47:53;100606.97;;;16.02;92.55
19210;BME280;9738;51.654;14.238;2022-08-03T01:50:25;100611.06;;;15.98;93.81
19210;BME280;9738;51.654;14.238;2022-08-03T01:52:53;100603.31;;;15.95;94.44
19210;BME280;9738;51.654;14.238;2022-08-03T01:55:21;100605.00;;;15.96;95.21
19210;BME280;9738;51.654;14.238;2022-08-03T01:57:49;100609.94;;;15.92;96.15
19210;BME280;9738;51.654;14.238;2022-08-03T02:00:17;100607.44;;;15.91;96.19
19210;BME280;9738;51.654;14.238;2022-08-03T02:02:46;100610.47;;;15.88;96.32
19210;BME280;9738;51.654;14.238;2022-08-03T02:05:14;100603.91;;;15.90;96.01
19210;BME280;9738;51.654;14.238;2022-08-03T02:07:42;100610.75;;;15.93;96.18
19210;BME280;9738;51.654;14.238;2022-08-03T02:10:12;100608.06;;;15.93;95.71
19210;BME280;9738;51.654;14.238;2022-08-03T02:12:38;100601.19;;;15.90;95.13
19210;BME280;9738;51.654;14.238;2022-08-03T02:15:06;100605.47;;;15.85;95.06
19210;BME280;9738;51.654;14.238;2022-08-03T02:17:33;100604.97;;;15.81;94.85
19210;BME280;9738;51.654;14.238;2022-08-03T02:20:00;100603.47;;;15.79;95.21
19210;BME280;9738;51.654;14.238;2022-08-03T02:22:28;100603.63;;;15.77;95.54
19210;BME280;9738;51.654;14.238;2022-08-03T02:24:55;100594.56;;;15.78;95.80
19210;BME280;9738;51.654;14.238;2022-08-03T02:27:22;100592.41;;;15.74;95.93
19210;BME280;9738;51.654;14.238;2022-08-03T02:29:57;100596.03;;;15.66;95.16
19210;BME280;9738;51.654;14.238;2022-08-03T02:32:29;100592.84;;;15.62;94.85
19210;BME280;9738;51.654;14.238;2022-08-03T02:34:58;100589.66;;;15.59;95.44
19210;BME280;9738;51.654;14.238;2022-08-03T02:37:28;100593.34;;;15.58;95.36
19210;BME280;9738;51.654;14.238;2022-08-03T02:40:00;100601.78;;;15.55;95.95
19210;BME280;9738;51.654;14.238;2022-08-03T02:42:28;100599.09;;;15.55;95.63
19210;BME280;9738;51.654;14.238;2022-08-03T02:44:59;100599.56;;;15.58;94.92
19210;BME280;9738;51.654;14.238;2022-08-03T02:47:27;100600.56;;;15.57;95.97
19210;BME280;9738;51.654;14.238;2022-08-03T02:49:56;100606.78;;;15.58;96.31
19210;BME280;9738;51.654;14.238;2022-08-03T02:52:26;100602.44;;;15.57;96.61
19210;BME280;9738;51.654;14.238;2022-08-03T02:54:56;100604.28;;;15.56;97.73
19210;BME280;9738;51.654;14.238;2022-08-03T02:57:25;100602.97;;;15.52;98.37
19210;BME280;9738;51.654;14.238;2022-08-03T02:59:54;100607.06;;;15.48;99.34
19210;BME280;9738;51.654;14.238;2022-08-03T03:02:20;100607.56;;;15.44;100.00
19210;BME280;9738;51.654;14.238;2022-08-03T03:04:49;100604.41;;;15.40;100.00
19210;BME280;9738;51.654;14.238;2022-08-03T03:07:15;100603.56;;;15.39;100.00
19210;BME280;9738;51.654;14.238;2022-08-03T03:09:42;100607.94;;;15.40;100.00
19210;BME280;9738;51.654;14.238;2022-08-03T03:12:11;100604.41;;;15.40;100.00
19210;BME280;9738;51.654;14.238;2022-08-03T03:14:38;100607.13;;;15.40;100.00
19210;BME280;9738;51.654;14.238;2022-08-03T03:17:09;100604.13;;;15.35;100.00
19210;BME280;9738;51.654;14.238;2022-08-03T03:19:38;100598.06;;;15.33;100.00
19210;BME280;9738;51.654;14.238;2022-08-03T03:22:04;100601.13;;;15.30;100.00
19210;BME280;9738;51.654;14.238;2022-08-03T03:24:33;100604.81;;;15.29;100.00
19210;BME280;9738;51.654;14.238;2022-08-03T03:27:00;100605.00;;;15.27;100.00
19210;BME280;9738;51.654;14.238;2022-08-03T03:29:27;100606.00;;;15.26;100.00
19210;BME280;9738;51.654;14.238;2022-08-03T03:31:53;100605.53;;;15.23;100.00
19210;BME280;9738;51.654;14.238;2022-08-03T03:34:20;100605.22;;;15.18;100.00
19210;BME280;9738;51.654;14.238;2022-08-03T03:36:46;100603.72;;;15.15;100.00
19210;BME280;9738;51.654;14.238;2022-08-03T03:39:12;100599.53;;;15.12;100.00
19210;BME280;9738;51.654;14.238;2022-08-03T03:41:38;100597.84;;;15.11;100.00
19210;BME280;9738;51.654;14.238;2022-08-03T03:44:04;100600.91;;;15.08;100.00
19210;BME280;9738;51.654;14.238;2022-08-03T03:46:30;100601.91;;;15.07;100.00
19210;BME280;9738;51.654;14.238;2022-08-03T03:48:58;100604.78;;;15.06;100.00
19210;BME280;9738;51.654;14.238;2022-08-03T03:51:24;100596.25;;;15.02;100.00
19210;BME280;9738;51.654;14.238;2022-08-03T03:53:57;100602.59;;;15.01;100.00
19210;BME280;9738;51.654;14.238;2022-08-03T03:56:23;100597.41;;;15.00;100.00
19210;BME280;9738;51.654;14.238;2022-08-03T03:58:49;100599.91;;;15.01;100.00
19210;BME280;9738;51.654;14.238;2022-08-03T04:01:15;100594.72;;;15.00;100.00
19210;BME280;9738;51.654;14.238;2022-08-03T04:03:42;100594.91;;;14.98;100.00
19210;BME280;9738;51.654;14.238;2022-08-03T04:06:07;100595.91;;;14.97;100.00
19210;BME280;9738;51.654;14.238;2022-08-03T04:08:52;100589.72;;;14.97;100.00
19210;BME280;9738;51.654;14.238;2022-08-03T04:11:39;100593.88;;;14.99;100.00
19210;BME280;9738;51.654;14.238;2022-08-03T04:14:25;100603.47;;;15.02;100.00
19210;BME280;9738;51.654;14.238;2022-08-03T04:17:00;100598.94;;;15.02;100.00
19210;BME280;9738;51.654;14.238;2022-08-03T04:19:34;100598.94;;;15.02;100.00
19210;BME280;9738;51.654;14.238;2022-08-03T04:22:11;100600.59;;;15.03;100.00
19210;BME280;9738;51.654;14.238;2022-08-03T04:24:42;100605.78;;;15.05;100.00
19210;BME280;9738;51.654;14.238;2022-08-03T04:27:11;100601.06;;;15.07;100.00
19210;BME280;9738;51.654;14.238;2022-08-03T04:29:42;100601.56;;;15.10;100.00
19210;BME280;9738;51.654;14.238;2022-08-03T04:32:10;100602.53;;;15.18;100.00
19210;BME280;9738;51.654;14.238;2022-08-03T04:34:36;100607.56;;;15.21;100.00
19210;BME280;9738;51.654;14.238;2022-08-03T04:37:13;100604.50;;;15.24;100.00
19210;BME280;9738;51.654;14.238;2022-08-03T04:39:43;100609.19;;;15.30;100.00
19210;BME280;9738;51.654;14.238;2022-08-03T04:42:14;100615.19;;;15.40;100.00
19210;BME280;9738;51.654;14.238;2022-08-03T04:44:42;100606.41;;;15.46;100.00
19210;BME280;9738;51.654;14.238;2022-08-03T04:47:09;100607.34;;;15.53;100.00
19210;BME280;9738;51.654;14.238;2022-08-03T04:49:36;100606.78;;;15.58;100.00
19210;BME280;9738;51.654;14.238;2022-08-03T04:52:03;100617.06;;;15.62;100.00
19210;BME280;9738;51.654;14.238;2022-08-03T04:54:29;100613.00;;;15.66;100.00
19210;BME280;9738;51.654;14.238;2022-08-03T04:56:56;100610.63;;;15.72;100.00
19210;BME280;9738;51.654;14.238;2022-08-03T04:59:21;100614.06;;;15.80;100.00
19210;BME280;9738;51.654;14.238;2022-08-03T05:01:47;100617.53;;;15.89;100.00
19210;BME280;9738;51.654;14.238;2022-08-03T05:04:13;100615.78;;;15.96;100.00
19210;BME280;9738;51.654;14.238;2022-08-03T05:06:39;100618.41;;;16.04;100.00
19210;BME280;9738;51.654;14.238;2022-08-03T05:09:05;100617.69;;;16.10;100.00
19210;BME280;9738;51.654;14.238;2022-08-03T05:11:31;100616.22;;;16.23;100.00
19210;BME280;9738;51.654;14.238;2022-08-03T05:13:57;100621.81;;;16.36;100.00
19210;BME280;9738;51.654;14.238;2022-08-03T05:16:22;100624.31;;;16.52;100.00
19210;BME280;9738;51.654;14.238;2022-08-03T05:18:50;100627.88;;;16.67;100.00
19210;BME280;9738;51.654;14.238;2022-08-03T05:21:16;100631.81;;;16.80;100.00
19210;BME280;9738;51.654;14.238;2022-08-03T05:23:43;100635.88;;;16.90;100.00
19210;BME280;9738;51.654;14.238;2022-08-03T05:26:09;100643.28;;;17.03;100.00
19210;BME280;9738;51.654;14.238;2022-08-03T05:28:37;100640.13;;;17.14;100.00
19210;BME280;9738;51.654;14.238;2022-08-03T05:31:02;100638.97;;;17.23;100.00
19210;BME280;9738;51.654;14.238;2022-08-03T05:33:29;100629.34;;;17.36;100.00
19210;BME280;9738;51.654;14.238;2022-08-03T05:35:54;100633.22;;;17.48;100.00
19210;BME280;9738;51.654;14.238;2022-08-03T05:38:20;100627.97;;;17.61;100.00
19210;BME280;9738;51.654;14.238;2022-08-03T05:40:46;100622.72;;;17.74;100.00
19210;BME280;9738;51.654;14.238;2022-08-03T05:43:12;100634.50;;;17.88;100.00
19210;BME280;9738;51.654;14.238;2022-08-03T05:45:38;100636.09;;;18.04;100.00
19210;BME280;9738;51.654;14.238;2022-08-03T05:48:05;100628.69;;;18.19;100.00
19210;BME280;9738;51.654;14.238;2022-08-03T05:50:30;100636.31;;;18.37;100.00
19210;BME280;9738;51.654;14.238;2022-08-03T05:52:56;100633.75;;;18.57;100.00
19210;BME280;9738;51.654;14.238;2022-08-03T05:55:23;100631.00;;;18.78;100.00
19210;BME280;9738;51.654;14.238;2022-08-03T05:57:48;100630.06;;;18.99;100.00
19210;BME280;9738;51.654;14.238;2022-08-03T06:00:15;100628.91;;;19.22;100.00
19210;BME280;9738;51.654;14.238;2022-08-03T06:02:41;100632.75;;;19.47;100.00
19210;BME280;9738;51.654;14.238;2022-08-03T06:05:08;100652.19;;;19.77;100.00
19210;BME280;9738;51.654;14.238;2022-08-03T06:07:34;100642.84;;;20.00;100.00
19210;BME280;9738;51.654;14.238;2022-08-03T06:10:00;100650.13;;;20.19;100.00
19210;BME280;9738;51.654;14.238;2022-08-03T06:12:28;100651.38;;;20.36;85.94
19210;BME280;9738;51.654;14.238;2022-08-03T06:14:54;100651.78;;;20.60;84.28
19210;BME280;9738;51.654;14.238;2022-08-03T06:17:20;100645.47;;;20.79;82.60
19210;BME280;9738;51.654;14.238;2022-08-03T06:19:46;100642.25;;;21.09;80.15
19210;BME280;9738;51.654;14.238;2022-08-03T06:22:11;100637.47;;;21.49;77.01
19210;BME280;9738;51.654;14.238;2022-08-03T06:24:38;100633.72;;;22.06;74.90
19210;BME280;9738;51.654;14.238;2022-08-03T06:27:03;100641.50;;;22.71;73.50
19210;BME280;9738;51.654;14.238;2022-08-03T06:29:29;100637.88;;;23.32;70.84
19210;BME280;9738;51.654;14.238;2022-08-03T06:31:55;100633.81;;;23.95;71.18
19210;BME280;9738;51.654;14.238;2022-08-03T06:34:21;100637.31;;;24.49;66.34
19210;BME280;9738;51.654;14.238;2022-08-03T06:36:47;100637.53;;;24.94;60.21
19210;BME280;9738;51.654;14.238;2022-08-03T06:39:16;100633.50;;;25.25;54.04
19210;BME280;9738;51.654;14.238;2022-08-03T06:41:42;100627.47;;;25.52;55.21
19210;BME280;9738;51.654;14.238;2022-08-03T06:44:08;100635.75;;;25.85;54.53
19210;BME280;9738;51.654;14.238;2022-08-03T06:46:34;100634.94;;;26.02;56.22
19210;BME280;9738;51.654;14.238;2022-08-03T06:49:00;100636.09;;;26.23;52.35
19210;BME280;9738;51.654;14.238;2022-08-03T06:51:26;100635.91;;;26.46;48.48
19210;BME280;9738;51.654;14.238;2022-08-03T06:53:52;100635.78;;;26.75;49.24
19210;BME280;9738;51.654;14.238;2022-08-03T06:56:18;100632.22;;;26.96;48.40
19210;BME280;9738;51.654;14.238;2022-08-03T06:58:45;100637.69;;;27.13;53.59
19210;BME280;9738;51.654;14.238;2022-08-03T07:01:12;100639.53;;;26.90;45.88
19210;BME280;9738;51.654;14.238;2022-08-03T07:03:38;100631.41;;;26.95;45.24
19210;BME280;9738;51.654;14.238;2022-08-03T07:06:05;100639.88;;;26.94;44.34
19210;BME280;9738;51.654;14.238;2022-08-03T07:08:31;100639.13;;;26.99;44.61
19210;BME280;9738;51.654;14.238;2022-08-03T07:10:57;100640.16;;;27.14;43.83
19210;BME280;9738;51.654;14.238;2022-08-03T07:13:23;100634.75;;;27.19;42.91
19210;BME280;9738;51.654;14.238;2022-08-03T07:15:49;100635.38;;;27.54;44.48
19210;BME280;9738;51.654;14.238;2022-08-03T07:18:15;100633.03;;;27.67;45.29
19210;BME280;9738;51.654;14.238;2022-08-03T07:20:41;100630.56;;;27.93;42.91
19210;BME280;9738;51.654;14.238;2022-08-03T07:23:07;100635.69;;;28.16;42.31
19210;BME280;9738;51.654;14.238;2022-08-03T07:25:34;100632.50;;;28.29;41.78
19210;BME280;9738;51.654;14.238;2022-08-03T07:28:00;100635.44;;;28.55;44.84
19210;BME280;9738;51.654;14.238;2022-08-03T07:30:26;100636.25;;;28.55;44.77
19210;BME280;9738;51.654;14.238;2022-08-03T07:32:52;100638.78;;;28.57;44.53
19210;BME280;9738;51.654;14.238;2022-08-03T07:35:18;100641.22;;;28.53;40.44
19210;BME280;9738;51.654;14.238;2022-08-03T07:37:44;100634.88;;;28.53;41.53
19210;BME280;9738;51.654;14.238;2022-08-03T07:40:10;100636.16;;;28.83;41.71
19210;BME280;9738;51.654;14.238;2022-08-03T07:42:35;100633.09;;;28.79;40.53
19210;BME280;9738;51.654;14.238;2022-08-03T07:45:02;100631.97;;;28.75;41.93
19210;BME280;9738;51.654;14.238;2022-08-03T07:47:29;100629.47;;;28.68;40.20
19210;BME280;9738;51.654;14.238;2022-08-03T07:49:55;100628.56;;;28.95;45.48
19210;BME280;9738;51.654;14.238;2022-08-03T07:52:22;100629.41;;;29.11;39.18
19210;BME280;9738;51.654;14.238;2022-08-03T07:55:07;100631.66;;;29.24;40.26
19210;BME280;9738;51.654;14.238;2022-08-03T07:57:34;100623.13;;;29.15;38.65
19210;BME280;9738;51.654;14.238;2022-08-03T08:00:00;100622.81;;;29.01;38.89
19210;BME280;9738;51.654;14.238;2022-08-03T08:02:25;100626.13;;;29.19;40.46
19210;BME280;9738;51.654;14.238;2022-08-03T08:04:52;100615.75;;;29.36;39.86
19210;BME280;9738;51.654;14.238;2022-08-03T08:07:17;100616.31;;;29.43;38.37
19210;BME280;9738;51.654;14.238;2022-08-03T08:09:43;100616.56;;;29.42;38.26
19210;BME280;9738;51.654;14.238;2022-08-03T08:12:10;100613.03;;;29.46;38.00
19210;BME280;9738;51.654;14.238;2022-08-03T08:14:37;100614.16;;;29.71;40.19
19210;BME280;9738;51.654;14.238;2022-08-03T08:17:03;100601.78;;;30.04;37.96
19210;BME280;9738;51.654;14.238;2022-08-03T08:19:29;100610.59;;;30.06;37.34
19210;BME280;9738;51.654;14.238;2022-08-03T08:21:55;100608.69;;;30.11;39.79
19210;BME280;9738;51.654;14.238;2022-08-03T08:24:21;100610.84;;;30.40;38.38
19210;BME280;9738;51.654;14.238;2022-08-03T08:26:47;100604.72;;;30.58;37.59
19210;BME280;9738;51.654;14.238;2022-08-03T08:29:13;100603.91;;;30.73;36.98
19210;BME280;9738;51.654;14.238;2022-08-03T08:31:38;100600.19;;;30.98;37.66
19210;BME280;9738;51.654;14.238;2022-08-03T08:34:05;100604.38;;;30.90;36.19
19210;BME280;9738;51.654;14.238;2022-08-03T08:36:33;100599.69;;;30.91;36.88
19210;BME280;9738;51.654;14.238;2022-08-03T08:38:59;100604.63;;;30.94;37.26
19210;BME280;9738;51.654;14.238;2022-08-03T08:41:25;100604.34;;;31.01;35.60
19210;BME280;9738;51.654;14.238;2022-08-03T08:43:52;100613.94;;;31.08;36.83
19210;BME280;9738;51.654;14.238;2022-08-03T08:46:19;100603.81;;;31.48;37.33
19210;BME280;9738;51.654;14.238;2022-08-03T08:48:47;100605.25;;;31.74;34.95
19210;BME280;9738;51.654;14.238;2022-08-03T08:51:15;100600.19;;;31.92;34.58
19210;BME280;9738;51.654;14.238;2022-08-03T08:53:45;100604.03;;;31.96;34.78
19210;BME280;9738;51.654;14.238;2022-08-03T08:56:16;100604.22;;;32.05;34.32
19210;BME280;9738;51.654;14.238;2022-08-03T08:58:51;100609.16;;;32.08;33.84
19210;BME280;9738;51.654;14.238;2022-08-03T09:01:18;100610.44;;;32.20;34.93
19210;BME280;9738;51.654;14.238;2022-08-03T09:03:45;100607.59;;;32.25;32.88
19210;BME280;9738;51.654;14.238;2022-08-03T09:06:11;100604.50;;;32.03;32.91
19210;BME280;9738;51.654;14.238;2022-08-03T09:08:37;100601.25;;;31.96;33.76
19210;BME280;9738;51.654;14.238;2022-08-03T09:11:03;100604.50;;;32.03;34.37
19210;BME280;9738;51.654;14.238;2022-08-03T09:13:29;100598.78;;;32.23;33.76
19210;BME280;9738;51.654;14.238;2022-08-03T09:16:12;100596.19;;;32.37;33.33
19210;BME280;9738;51.654;14.238;2022-08-03T09:18:39;100602.75;;;32.70;34.85
19210;BME280;9738;51.654;14.238;2022-08-03T09:21:13;100602.50;;;32.91;32.41
19210;BME280;9738;51.654;14.238;2022-08-03T09:23:48;100604.38;;;32.71;32.27
19210;BME280;9738;51.654;14.238;2022-08-03T09:26:21;100599.66;;;32.72;32.30
19210;BME280;9738;51.654;14.238;2022-08-03T09:28:57;100601.13;;;32.40;32.26
19210;BME280;9738;51.654;14.238;2022-08-03T09:31:41;100601.19;;;32.35;31.82
19210;BME280;9738;51.654;14.238;2022-08-03T09:34:11;100591.25;;;32.58;34.28
19210;BME280;9738;51.654;14.238;2022-08-03T09:36:43;100588.00;;;32.99;32.60
19210;BME280;9738;51.654;14.238;2022-08-03T09:39:12;100595.94;;;33.24;32.04
19210;BME280;9738;51.654;14.238;2022-08-03T09:41:47;100597.84;;;33.29;30.88
19210;BME280;9738;51.654;14.238;2022-08-03T09:44:14;100592.28;;;33.29;31.65
19210;BME280;9738;51.654;14.238;2022-08-03T09:46:51;100600.22;;;33.35;32.13
19210;BME280;9738;51.654;14.238;2022-08-03T09:49:18;100592.69;;;33.41;31.27
19210;BME280;9738;51.654;14.238;2022-08-03T09:51:44;100585.41;;;33.45;31.88
19210;BME280;9738;51.654;14.238;2022-08-03T09:54:10;100587.34;;;33.64;29.99
19210;BME280;9738;51.654;14.238;2022-08-03T09:56:43;100581.34;;;33.75;31.90
19210;BME280;9738;51.654;14.238;2022-08-03T09:59:10;100576.56;;;33.62;30.02
19210;BME280;9738;51.654;14.238;2022-08-03T10:01:37;100586.38;;;33.35;30.67
19210;BME280;9738;51.654;14.238;2022-08-03T10:04:13;100580.59;;;33.13;30.70
19210;BME280;9738;51.654;14.238;2022-08-03T10:06:59;100578.22;;;33.06;30.45
19210;BME280;9738;51.654;14.238;2022-08-03T10:09:26;100572.00;;;33.33;31.62
19210;BME280;9738;51.654;14.238;2022-08-03T10:11:52;100566.00;;;33.26;29.68
19210;BME280;9738;51.654;14.238;2022-08-03T10:14:18;100574.63;;;33.06;31.54
19210;BME280;9738;51.654;14.238;2022-08-03T10:16:45;100571.19;;;33.14;30.94
19210;BME280;9738;51.654;14.238;2022-08-03T10:19:12;100563.34;;;33.40;32.20
19210;BME280;9738;51.654;14.238;2022-08-03T10:21:41;100561.75;;;33.53;29.66
19210;BME280;9738;51.654;14.238;2022-08-03T10:24:13;100563.56;;;33.25;29.33
19210;BME280;9738;51.654;14.238;2022-08-03T10:26:43;100557.34;;;33.33;30.98
19210;BME280;9738;51.654;14.238;2022-08-03T10:29:11;100559.44;;;33.22;29.91
19210;BME280;9738;51.654;14.238;2022-08-03T10:31:43;100554.28;;;33.16;30.42
19210;BME280;9738;51.654;14.238;2022-08-03T10:34:18;100563.47;;;33.11;30.62
19210;BME280;9738;51.654;14.238;2022-08-03T10:36:49;100561.47;;;33.17;30.61
19210;BME280;9738;51.654;14.238;2022-08-03T10:39:21;100548.81;;;33.29;29.72
19210;BME280;9738;51.654;14.238;2022-08-03T10:41:48;100557.63;;;33.31;29.95
19210;BME280;9738;51.654;14.238;2022-08-03T10:44:19;100555.28;;;33.44;29.94
19210;BME280;9738;51.654;14.238;2022-08-03T10:46:48;100553.59;;;33.61;30.70
19210;BME280;9738;51.654;14.238;2022-08-03T10:49:17;100554.38;;;33.81;30.38
19210;BME280;9738;51.654;14.238;2022-08-03T10:51:44;100551.56;;;34.00;30.61
19210;BME280;9738;51.654;14.238;2022-08-03T10:57:02;100542.75;;;33.98;28.85
19210;BME280;9738;51.654;14.238;2022-08-03T11:02:14;100541.25;;;33.86;28.03
19210;BME280;9738;51.654;14.238;2022-08-03T11:04:42;100540.63;;;33.89;29.38
19210;BME280;9738;51.654;14.238;2022-08-03T11:07:22;100541.72;;;34.07;28.07
19210;BME280;9738;51.654;14.238;2022-08-03T11:09:53;100532.25;;;33.62;28.46
19210;BME280;9738;51.654;14.238;2022-08-03T11:12:24;100542.00;;;33.59;27.72
19210;BME280;9738;51.654;14.238;2022-08-03T11:14:52;100543.88;;;33.78;28.62
19210;BME280;9738;51.654;14.238;2022-08-03T11:17:18;100538.19;;;33.88;28.35
19210;BME280;9738;51.654;14.238;2022-08-03T11:19:47;100533.59;;;33.65;25.47
19210;BME280;9738;51.654;14.238;2022-08-03T11:22:14;100530.34;;;33.76;27.24
19210;BME280;9738;51.654;14.238;2022-08-03T11:27:21;100523.47;;;34.34;27.83
19210;BME280;9738;51.654;14.238;2022-08-03T11:29:56;100523.69;;;34.37;26.27
19210;BME280;9738;51.654;14.238;2022-08-03T11:40:52;100520.38;;;34.22;28.36
19210;BME280;9738;51.654;14.238;2022-08-03T11:51:02;100516.59;;;34.59;26.82
19210;BME280;9738;51.654;14.238;2022-08-03T11:53:28;100515.06;;;34.53;26.57
19210;BME280;9738;51.654;14.238;2022-08-03T11:55:57;100513.69;;;34.23;26.53
19210;BME280;9738;51.654;14.238;2022-08-03T11:58:23;100507.34;;;34.08;26.02
19210;BME280;9738;51.654;14.238;2022-08-03T12:00:49;100516.28;;;34.05;24.74
19210;BME280;9738;51.654;14.238;2022-08-03T12:03:18;100520.78;;;34.01;25.67
19210;BME280;9738;51.654;14.238;2022-08-03T12:05:51;100516.97;;;33.97;25.57
19210;BME280;9738;51.654;14.238;2022-08-03T12:10:54;100507.88;;;33.78;27.21
19210;BME280;9738;51.654;14.238;2022-08-03T12:13:21;100497.44;;;33.88;27.78
19210;BME280;9738;51.654;14.238;2022-08-03T12:15:52;100500.66;;;33.96;28.61
19210;BME280;9738;51.654;14.238;2022-08-03T12:18:19;100492.66;;;34.08;26.62
19210;BME280;9738;51.654;14.238;2022-08-03T12:20:50;100490.63;;;34.13;26.70
19210;BME280;9738;51.654;14.238;2022-08-03T12:23:18;100488.88;;;34.31;26.91
19210;BME280;9738;51.654;14.238;2022-08-03T12:25:45;100489.06;;;34.35;23.68
19210;BME280;9738;51.654;14.238;2022-08-03T12:28:15;100485.69;;;34.38;24.29
19210;BME280;9738;51.654;14.238;2022-08-03T12:30:45;100481.88;;;34.48;26.94
19210;BME280;9738;51.654;14.238;2022-08-03T12:33:17;100484.44;;;34.58;25.66
19210;BME280;9738;51.654;14.238;2022-08-03T12:36:04;100474.50;;;34.57;26.89
19210;BME280;9738;51.654;14.238;2022-08-03T12:38:32;100478.50;;;34.51;26.27
19210;BME280;9738;51.654;14.238;2022-08-03T12:41:01;100476.34;;;34.48;24.98
19210;BME280;9738;51.654;14.238;2022-08-03T12:43:28;100476.88;;;34.36;26.41
19210;BME280;9738;51.654;14.238;2022-08-03T12:46:08;100475.84;;;34.18;25.52
19210;BME280;9738;51.654;14.238;2022-08-03T12:48:34;100468.44;;;34.13;25.45
19210;BME280;9738;51.654;14.238;2022-08-03T12:51:08;100472.34;;;34.12;26.65
19210;BME280;9738;51.654;14.238;2022-08-03T12:53:35;100471.94;;;34.19;25.78
19210;BME280;9738;51.654;14.238;2022-08-03T12:56:03;100477.06;;;34.26;26.09
19210;BME280;9738;51.654;14.238;2022-08-03T12:58:31;100475.59;;;34.28;26.09
19210;BME280;9738;51.654;14.238;2022-08-03T13:00:58;100471.72;;;34.29;25.87
19210;BME280;9738;51.654;14.238;2022-08-03T13:03:24;100468.66;;;34.45;26.51
19210;BME280;9738;51.654;14.238;2022-08-03T13:05:50;100470.28;;;34.46;23.97
19210;BME280;9738;51.654;14.238;2022-08-03T13:08:23;100463.50;;;34.52;24.60
19210;BME280;9738;51.654;14.238;2022-08-03T13:10:50;100460.91;;;34.69;24.46
19210;BME280;9738;51.654;14.238;2022-08-03T13:13:16;100468.75;;;34.89;23.94
19210;BME280;9738;51.654;14.238;2022-08-03T13:15:41;100467.69;;;35.13;23.26
19210;BME280;9738;51.654;14.238;2022-08-03T13:18:08;100468.44;;;35.27;23.01
19210;BME280;9738;51.654;14.238;2022-08-03T13:20:34;100468.31;;;35.10;22.91
19210;BME280;9738;51.654;14.238;2022-08-03T13:23:00;100464.91;;;35.13;23.03
19210;BME280;9738;51.654;14.238;2022-08-03T13:25:26;100460.72;;;35.24;25.44
19210;BME280;9738;51.654;14.238;2022-08-03T13:27:52;100463.94;;;35.40;24.66